createdAt,value
2018-07-14T00:01:52.211Z,17.50
2018-07-14T00:04:21.537Z,17.50
2018-07-14T00:06:50.415Z,17.40
2018-07-14T00:09:19.516Z,17.40
2018-07-14T00:11:48.548Z,17.30
2018-07-14T00:14:17.394Z,17.20
2018-07-14T00:16:46.239Z,17.20
2018-07-14T00:19:15.312Z,17.20
2018-07-14T00:21:44.238Z,17.20
2018-07-14T00:24:13.144Z,17.20
2018-07-14T00:26:42.021Z,17.10
2018-07-14T00:29:11.148Z,17.10
2018-07-14T00:34:08.504Z,17.00
2018-07-14T00:36:37.328Z,17.00
2018-07-14T00:39:07.286Z,16.90
2018-07-14T00:41:36.140Z,16.90
2018-07-14T00:44:05.032Z,16.90
2018-07-14T00:46:34.446Z,16.80
2018-07-14T00:49:03.306Z,16.80
2018-07-14T00:51:32.134Z,16.80
2018-07-14T00:54:00.967Z,16.80
2018-07-14T00:56:29.809Z,16.80
2018-07-14T00:58:58.642Z,16.80
2018-07-14T01:01:27.481Z,16.70
2018-07-14T01:03:56.233Z,16.70
2018-07-14T01:06:25.127Z,16.60
2018-07-14T01:08:54.035Z,16.60
2018-07-14T01:11:23.047Z,16.60
2018-07-14T01:13:51.883Z,16.60
2018-07-14T01:16:20.761Z,16.60
2018-07-14T01:18:50.049Z,16.50
2018-07-14T01:21:19.053Z,16.50
2018-07-14T01:23:47.963Z,16.50
2018-07-14T01:28:45.249Z,16.40
2018-07-14T01:31:14.313Z,16.40
2018-07-14T01:33:43.113Z,16.30
2018-07-14T01:36:12.019Z,16.40
2018-07-14T01:38:40.833Z,16.30
2018-07-14T01:41:09.910Z,16.30
2018-07-14T01:46:07.911Z,16.30
2018-07-14T01:48:36.769Z,16.30
2018-07-14T01:51:06.331Z,16.30
2018-07-14T01:53:35.217Z,16.20
2018-07-14T01:56:04.005Z,16.20
2018-07-14T01:58:32.883Z,16.10
2018-07-14T02:01:01.796Z,16.10
2018-07-14T02:03:30.714Z,16.10
2018-07-14T02:05:59.665Z,16.00
2018-07-14T02:08:28.587Z,16.00
2018-07-14T02:10:57.631Z,15.90
2018-07-14T02:13:26.547Z,15.90
2018-07-14T02:15:56.043Z,15.90
2018-07-14T02:18:36.621Z,15.90
2018-07-14T02:21:05.539Z,15.80
2018-07-14T02:23:34.447Z,15.80
2018-07-14T02:26:03.423Z,15.80
2018-07-14T02:28:32.303Z,15.80
2018-07-14T02:31:01.615Z,15.80
2018-07-14T02:33:30.441Z,15.80
2018-07-14T02:35:59.314Z,15.70
2018-07-14T02:38:28.369Z,15.70
2018-07-14T02:40:57.197Z,15.60
2018-07-14T02:43:26.081Z,15.60
2018-07-14T02:45:54.935Z,15.60
2018-07-14T02:48:23.898Z,15.50
2018-07-14T02:50:52.919Z,15.50
2018-07-14T02:53:21.837Z,15.50
2018-07-14T02:55:51.018Z,15.40
2018-07-14T02:58:19.849Z,15.40
2018-07-14T03:00:48.846Z,15.40
2018-07-14T03:03:18.180Z,15.40
2018-07-14T03:05:47.034Z,15.30
2018-07-14T03:08:16.250Z,15.30
2018-07-14T03:10:45.094Z,15.20
2018-07-14T03:13:14.091Z,15.10
2018-07-14T03:15:43.984Z,15.10
2018-07-14T03:18:12.836Z,15.10
2018-07-14T03:20:41.716Z,15.10
2018-07-14T03:23:10.642Z,15.00
2018-07-14T03:25:39.448Z,15.10
2018-07-14T03:28:08.366Z,15.10
2018-07-14T03:30:37.316Z,15.10
2018-07-14T03:33:06.640Z,15.10
2018-07-14T03:35:35.950Z,15.20
2018-07-14T03:38:04.831Z,15.20
2018-07-14T03:40:33.600Z,15.20
2018-07-14T03:43:02.662Z,15.30
2018-07-14T03:45:31.428Z,15.40
2018-07-14T03:48:00.212Z,15.40
2018-07-14T03:50:29.170Z,15.40
2018-07-14T03:52:58.079Z,15.50
2018-07-14T03:55:26.922Z,15.50
2018-07-14T03:57:55.722Z,15.50
2018-07-14T04:00:24.823Z,15.60
2018-07-14T04:02:53.716Z,15.70
2018-07-14T04:07:51.760Z,15.70
2018-07-14T04:12:49.016Z,15.70
2018-07-14T04:15:17.979Z,15.70
2018-07-14T04:17:51.072Z,15.70
2018-07-14T04:20:20.070Z,15.70
2018-07-14T04:22:48.873Z,15.80
2018-07-14T04:25:17.684Z,15.90
2018-07-14T04:27:46.702Z,16.00
2018-07-14T04:30:15.552Z,16.10
2018-07-14T04:32:44.514Z,16.30
2018-07-14T04:35:13.988Z,16.40
2018-07-14T04:37:42.912Z,16.60
2018-07-14T04:40:11.860Z,16.70
2018-07-14T04:47:37.980Z,16.70
2018-07-14T04:50:07.060Z,16.60
2018-07-14T04:52:36.211Z,16.60
2018-07-14T04:55:05.292Z,16.60
2018-07-14T04:57:34.143Z,16.60
2018-07-14T05:00:03.064Z,16.70
2018-07-14T05:02:32.085Z,16.80
2018-07-14T05:05:01.654Z,16.90
2018-07-14T05:07:30.851Z,17.00
2018-07-14T05:09:59.832Z,17.10
2018-07-14T05:12:28.850Z,17.70
2018-07-14T05:14:57.720Z,18.50
2018-07-14T05:17:26.546Z,19.50
2018-07-14T05:19:55.398Z,20.60
2018-07-14T05:22:24.288Z,21.50
2018-07-14T05:24:53.197Z,22.40
2018-07-14T05:27:22.046Z,22.90
2018-07-14T05:29:51.107Z,23.40
2018-07-14T05:32:19.961Z,24.00
2018-07-14T05:34:48.972Z,24.70
2018-07-14T05:37:17.848Z,25.50
2018-07-14T05:39:46.888Z,26.00
2018-07-14T05:42:15.831Z,26.40
2018-07-14T05:44:44.765Z,26.80
2018-07-14T05:47:13.622Z,27.40
2018-07-14T05:49:43.156Z,28.00
2018-07-14T05:52:12.164Z,28.40
2018-07-14T05:54:41.068Z,28.80
2018-07-14T05:57:09.765Z,29.30
2018-07-14T05:59:38.653Z,29.70
2018-07-14T06:02:08.205Z,29.90
2018-07-14T06:04:37.685Z,29.80
2018-07-14T06:07:06.791Z,30.00
2018-07-14T06:09:37.254Z,30.20
2018-07-14T06:12:06.970Z,30.00
2018-07-14T06:14:36.953Z,29.90
2018-07-14T06:17:06.878Z,29.50
2018-07-14T06:19:35.931Z,29.10
2018-07-14T06:24:33.435Z,30.10
2018-07-14T06:27:02.448Z,31.00
2018-07-14T06:29:31.231Z,31.40
2018-07-14T06:32:01.026Z,31.60
2018-07-14T06:34:29.971Z,32.10
2018-07-14T06:36:58.702Z,31.90
2018-07-14T06:39:27.580Z,31.40
2018-07-14T06:41:56.859Z,31.70
2018-07-14T06:44:26.181Z,31.90
2018-07-14T06:46:55.060Z,32.50
2018-07-14T06:49:23.919Z,33.10
2018-07-14T06:51:52.901Z,32.90
2018-07-14T06:54:22.029Z,32.40
2018-07-14T06:56:51.258Z,32.40
2018-07-14T06:59:20.456Z,32.10
2018-07-14T07:01:49.922Z,31.60
2018-07-14T07:04:18.780Z,31.30
2018-07-14T07:06:47.735Z,30.50
2018-07-14T07:09:17.635Z,29.70
2018-07-14T07:11:46.610Z,29.30
2018-07-14T07:14:15.728Z,28.50
2018-07-14T07:16:44.556Z,28.30
2018-07-14T07:19:13.476Z,28.20
2018-07-14T07:21:42.379Z,27.90
2018-07-14T07:24:11.162Z,27.70
2018-07-14T07:29:08.344Z,27.60
2018-07-14T07:31:37.264Z,27.40
2018-07-14T07:34:06.704Z,27.10
2018-07-14T07:36:35.490Z,27.10
2018-07-14T07:39:05.313Z,27.20
2018-07-14T07:41:34.746Z,27.40
2018-07-14T07:44:04.018Z,27.50
2018-07-14T07:46:33.109Z,27.70
2018-07-14T07:49:02.080Z,27.90
2018-07-14T07:51:31.179Z,27.90
2018-07-14T07:54:00.066Z,28.00
2018-07-14T07:56:39.383Z,27.60
2018-07-14T07:59:08.294Z,27.60
2018-07-14T08:01:37.095Z,27.60
2018-07-14T08:04:08.029Z,27.70
2018-07-14T08:06:36.998Z,27.80
2018-07-14T08:09:06.536Z,27.70
2018-07-14T08:11:35.378Z,27.70
2018-07-14T08:14:04.577Z,27.70
2018-07-14T08:16:34.129Z,27.50
2018-07-14T08:19:02.916Z,27.20
2018-07-14T08:21:31.640Z,26.90
2018-07-14T08:24:00.488Z,26.80
2018-07-14T08:26:29.506Z,26.60
2018-07-14T08:28:58.325Z,26.50
2018-07-14T08:31:27.165Z,26.60
2018-07-14T08:33:56.130Z,26.40
2018-07-14T08:36:25.014Z,26.30
2018-07-14T08:38:53.884Z,26.10
2018-07-14T08:41:22.810Z,26.20
2018-07-14T08:43:51.729Z,26.40
2018-07-14T08:46:20.548Z,26.60
2018-07-14T08:48:49.417Z,26.80
2018-07-14T08:51:19.375Z,26.60
2018-07-14T08:53:49.232Z,26.50
2018-07-14T08:56:18.048Z,26.60
2018-07-14T08:58:46.868Z,26.70
2018-07-14T09:01:15.741Z,26.60
2018-07-14T09:03:44.649Z,26.70
2018-07-14T09:06:13.682Z,26.60
2018-07-14T09:08:42.676Z,26.50
2018-07-14T09:11:11.608Z,26.70
2018-07-14T09:13:40.818Z,26.90
2018-07-14T09:16:10.362Z,26.80
2018-07-14T09:18:39.744Z,26.80
2018-07-14T09:21:08.840Z,26.80
2018-07-14T09:23:37.991Z,26.60
2018-07-14T09:26:14.114Z,26.50
2018-07-14T09:28:42.882Z,26.70
2018-07-14T09:31:11.666Z,26.80
2018-07-14T09:33:41.072Z,27.00
2018-07-14T09:36:10.163Z,26.80
2018-07-14T09:38:39.122Z,26.70
2018-07-14T09:43:36.525Z,26.90
2018-07-14T09:46:06.059Z,26.90
2018-07-14T09:48:35.798Z,26.90
2018-07-14T09:51:05.560Z,27.10
2018-07-14T09:53:34.393Z,27.20
2018-07-14T09:56:03.159Z,27.00
2018-07-14T09:58:31.865Z,27.10
2018-07-14T10:01:06.062Z,27.20
2018-07-14T10:03:35.034Z,27.40
2018-07-14T10:06:03.931Z,27.50
2018-07-14T10:08:33.260Z,27.60
2018-07-14T10:11:02.152Z,27.40
2018-07-14T10:13:30.920Z,27.10
2018-07-14T10:15:59.762Z,27.20
2018-07-14T10:18:28.633Z,27.60
2018-07-14T10:20:57.541Z,28.10
2018-07-14T10:23:26.511Z,28.40
2018-07-14T10:25:55.426Z,28.60
2018-07-14T10:28:24.218Z,28.60
2018-07-14T10:30:53.127Z,28.70
2018-07-14T10:33:22.022Z,28.70
2018-07-14T10:35:50.795Z,28.60
2018-07-14T10:38:19.680Z,28.40
2018-07-14T10:40:48.540Z,28.20
2018-07-14T10:43:17.460Z,28.20
2018-07-14T10:45:46.582Z,28.40
2018-07-14T10:48:15.472Z,28.50
2018-07-14T10:50:44.478Z,28.80
2018-07-14T10:53:13.320Z,28.90
2018-07-14T10:55:42.157Z,29.00
2018-07-14T10:58:11.016Z,28.80
2018-07-14T11:00:39.958Z,28.70
2018-07-14T11:03:08.784Z,28.60
2018-07-14T11:05:37.734Z,28.60
2018-07-14T11:08:06.615Z,28.70
2018-07-14T11:10:35.699Z,28.60
2018-07-14T11:13:04.460Z,28.40
2018-07-14T11:15:33.342Z,28.40
2018-07-14T11:18:02.295Z,28.50
2018-07-14T11:20:31.117Z,28.70
2018-07-14T11:22:59.863Z,28.80
2018-07-14T11:25:28.673Z,28.90
2018-07-14T11:27:57.832Z,29.10
2018-07-14T11:30:26.744Z,28.90
2018-07-14T11:32:56.116Z,28.60
2018-07-14T11:35:25.334Z,28.50
2018-07-14T11:37:54.507Z,28.20
2018-07-14T11:40:23.254Z,28.20
2018-07-14T11:42:52.242Z,29.00
2018-07-14T11:45:21.413Z,29.90
2018-07-14T11:47:50.285Z,30.50
2018-07-14T11:50:19.120Z,30.90
2018-07-14T11:52:48.020Z,30.80
2018-07-14T11:55:16.906Z,30.80
2018-07-14T11:57:45.670Z,31.70
2018-07-14T12:00:15.074Z,32.40
2018-07-14T12:02:43.813Z,32.70
2018-07-14T12:05:12.664Z,33.30
2018-07-14T12:07:41.677Z,34.30
2018-07-14T12:12:39.127Z,34.70
2018-07-14T12:15:08.142Z,34.60
2018-07-14T12:17:37.020Z,33.80
2018-07-14T12:20:06.497Z,33.70
2018-07-14T12:22:35.329Z,34.40
2018-07-14T12:27:32.938Z,32.30
2018-07-14T12:30:01.584Z,31.70
2018-07-14T12:32:30.458Z,31.90
2018-07-14T12:34:59.401Z,32.70
2018-07-14T12:37:28.311Z,34.40
2018-07-14T12:39:57.099Z,35.20
2018-07-14T12:42:26.144Z,34.80
2018-07-14T12:44:55.040Z,34.60
2018-07-14T12:47:23.947Z,33.70
2018-07-14T12:49:52.920Z,33.60
2018-07-14T12:52:27.762Z,33.60
2018-07-14T12:54:56.591Z,32.90
2018-07-14T12:57:25.801Z,32.90
2018-07-14T12:59:55.545Z,33.10
2018-07-14T13:02:24.478Z,33.70
2018-07-14T13:04:53.301Z,34.00
2018-07-14T13:07:22.225Z,33.40
2018-07-14T13:12:19.563Z,33.00
2018-07-14T13:14:48.434Z,33.30
2018-07-14T13:17:17.419Z,32.90
2018-07-14T13:19:46.324Z,32.50
2018-07-14T13:22:15.136Z,31.80
2018-07-14T13:24:43.969Z,31.10
2018-07-14T13:27:12.897Z,31.50
2018-07-14T13:29:41.803Z,31.50
2018-07-14T13:32:10.869Z,31.90
2018-07-14T13:34:39.725Z,32.50
2018-07-14T13:37:08.848Z,33.00
2018-07-14T13:39:37.838Z,32.80
2018-07-14T13:42:06.648Z,33.10
2018-07-14T13:44:35.586Z,33.90
2018-07-14T13:49:32.949Z,34.90
2018-07-14T13:52:01.950Z,34.90
2018-07-14T13:54:30.887Z,33.40
2018-07-14T13:56:59.664Z,32.50
2018-07-14T13:59:28.470Z,32.10
2018-07-14T14:01:57.287Z,32.60
2018-07-14T14:04:26.296Z,33.40
2018-07-14T14:06:55.130Z,33.90
2018-07-14T14:09:24.053Z,34.20
2018-07-14T14:11:52.799Z,34.10
2018-07-14T14:14:21.999Z,34.60
2018-07-14T14:16:54.989Z,33.60
2018-07-14T14:19:23.799Z,32.00
2018-07-14T14:21:53.221Z,31.00
2018-07-14T14:24:22.261Z,30.50
2018-07-14T14:26:51.127Z,30.00
2018-07-14T14:29:20.061Z,29.30
2018-07-14T14:31:48.843Z,28.90
2018-07-14T14:34:17.609Z,28.80
2018-07-14T14:36:50.511Z,28.90
2018-07-14T14:39:19.461Z,29.00
2018-07-14T14:41:48.461Z,29.00
2018-07-14T14:44:17.315Z,29.60
2018-07-14T14:46:46.610Z,30.60
2018-07-14T14:49:15.418Z,31.00
2018-07-14T14:51:44.165Z,30.90
2018-07-14T14:54:13.269Z,30.80
2018-07-14T14:56:42.270Z,31.00
2018-07-14T14:59:11.208Z,31.00
2018-07-14T15:01:40.230Z,30.80
2018-07-14T15:04:09.167Z,30.10
2018-07-14T15:06:38.198Z,29.90
2018-07-14T15:09:07.507Z,29.40
2018-07-14T15:11:36.605Z,28.90
2018-07-14T15:14:05.489Z,28.70
2018-07-14T15:16:34.529Z,28.70
2018-07-14T15:19:03.685Z,28.70
2018-07-14T15:21:32.705Z,28.70
2018-07-14T15:24:07.127Z,28.70
2018-07-14T15:26:35.837Z,28.80
2018-07-14T15:29:05.083Z,28.60
2018-07-14T15:31:34.245Z,28.50
2018-07-14T15:34:03.041Z,28.30
2018-07-14T15:36:31.927Z,28.20
2018-07-14T15:39:00.713Z,28.30
2018-07-14T15:41:29.688Z,28.20
2018-07-14T15:44:03.346Z,28.10
2018-07-14T15:46:32.259Z,27.90
2018-07-14T15:49:00.963Z,27.60
2018-07-14T15:51:29.844Z,27.50
2018-07-14T15:53:58.699Z,27.20
2018-07-14T15:56:27.483Z,27.10
2018-07-14T15:58:56.325Z,27.10
2018-07-14T16:01:25.145Z,26.80
2018-07-14T16:03:53.931Z,26.60
2018-07-14T16:06:22.742Z,26.40
2018-07-14T16:08:51.516Z,26.40
2018-07-14T16:11:20.307Z,26.40
2018-07-14T16:13:49.310Z,26.50
2018-07-14T16:16:18.187Z,26.80
2018-07-14T16:18:47.130Z,27.40
2018-07-14T16:21:15.994Z,27.80
2018-07-14T16:23:44.880Z,27.90
2018-07-14T16:26:13.736Z,27.90
2018-07-14T16:28:42.589Z,27.80
2018-07-14T16:31:11.426Z,27.90
2018-07-14T16:33:40.220Z,28.00
2018-07-14T16:36:08.951Z,27.90
2018-07-14T16:38:37.938Z,27.80
2018-07-14T16:41:07.162Z,27.80
2018-07-14T16:43:36.021Z,27.70
2018-07-14T16:46:09.095Z,27.70
2018-07-14T16:48:38.250Z,27.70
2018-07-14T16:51:07.403Z,27.80
2018-07-14T16:53:36.298Z,27.80
2018-07-14T16:56:05.254Z,27.80
2018-07-14T16:58:33.980Z,27.80
2018-07-14T17:01:02.860Z,27.90
2018-07-14T17:03:31.592Z,27.80
2018-07-14T17:06:00.341Z,27.80
2018-07-14T17:08:29.150Z,27.70
2018-07-14T17:10:58.034Z,27.70
2018-07-14T17:13:26.988Z,27.70
2018-07-14T17:15:56.994Z,27.70
2018-07-14T17:18:25.973Z,27.70
2018-07-14T17:20:55.112Z,27.70
2018-07-14T17:23:37.859Z,27.70
2018-07-14T17:26:07.758Z,27.60
2018-07-14T17:28:36.793Z,27.60
2018-07-14T17:31:06.284Z,27.60
2018-07-14T17:33:35.088Z,27.50
2018-07-14T17:36:04.286Z,27.50
2018-07-14T17:38:33.482Z,27.50
2018-07-14T17:41:05.666Z,27.40
2018-07-14T17:43:34.606Z,27.40
2018-07-14T17:46:03.639Z,27.30
2018-07-14T17:48:32.858Z,27.30
2018-07-14T17:51:01.684Z,27.30
2018-07-14T17:53:30.512Z,27.20
2018-07-14T17:55:59.484Z,27.20
2018-07-14T17:58:28.394Z,27.10
2018-07-14T18:00:57.318Z,27.10
2018-07-14T18:03:26.122Z,27.10
2018-07-14T18:05:54.986Z,27.00
2018-07-14T18:08:23.702Z,27.00
2018-07-14T18:10:52.998Z,27.00
2018-07-14T18:13:21.798Z,26.90
2018-07-14T18:15:50.612Z,26.90
2018-07-14T18:18:19.753Z,26.80
2018-07-14T18:20:48.530Z,26.80
2018-07-14T18:23:17.380Z,26.70
2018-07-14T18:25:46.274Z,26.60
2018-07-14T18:28:15.164Z,26.60
2018-07-14T18:30:44.788Z,26.50
2018-07-14T18:33:13.542Z,26.40
2018-07-14T18:35:42.436Z,26.30
2018-07-14T18:38:11.488Z,26.20
2018-07-14T18:40:40.259Z,26.10
2018-07-14T18:45:37.594Z,25.90
2018-07-14T18:48:06.402Z,25.80
2018-07-14T18:50:35.224Z,25.70
2018-07-14T18:53:04.059Z,25.60
2018-07-14T18:55:32.965Z,25.60
2018-07-14T18:58:01.871Z,25.50
2018-07-14T19:00:31.014Z,25.40
2018-07-14T19:02:59.865Z,25.30
2018-07-14T19:05:28.737Z,25.10
2018-07-14T19:07:57.644Z,25.10
2018-07-14T19:10:26.549Z,25.00
2018-07-14T19:12:55.435Z,24.90
2018-07-14T19:15:24.390Z,24.80
2018-07-14T19:17:53.374Z,24.70
2018-07-14T19:20:22.193Z,24.70
2018-07-14T19:22:51.243Z,24.60
2018-07-14T19:25:20.136Z,24.50
2018-07-14T19:27:49.032Z,24.40
2018-07-14T19:30:18.037Z,24.30
2018-07-14T19:32:46.955Z,24.20
2018-07-14T19:35:15.872Z,24.00
2018-07-14T19:37:44.856Z,24.00
2018-07-14T19:40:16.726Z,23.90
2018-07-14T19:42:45.800Z,23.90
2018-07-14T19:45:15.855Z,23.80
2018-07-14T19:47:45.116Z,23.70
2018-07-14T19:50:14.056Z,23.50
2018-07-14T19:52:44.092Z,23.50
2018-07-14T19:55:13.178Z,23.40
2018-07-14T19:57:42.041Z,23.20
2018-07-14T20:00:10.994Z,23.10
2018-07-14T20:02:40.103Z,23.00
2018-07-14T20:05:09.288Z,23.00
2018-07-14T20:07:43.160Z,22.90
2018-07-14T20:10:12.113Z,22.80
2018-07-14T20:12:41.393Z,22.70
2018-07-14T20:15:10.290Z,22.60
2018-07-14T20:17:39.275Z,22.50
2018-07-14T20:20:09.038Z,22.50
2018-07-14T20:22:38.229Z,22.40
2018-07-14T20:30:04.274Z,22.20
2018-07-14T20:32:33.646Z,22.20
2018-07-14T20:35:02.985Z,22.10
2018-07-14T20:37:38.278Z,22.00
2018-07-14T20:40:07.188Z,21.90
2018-07-14T20:42:36.092Z,21.80
2018-07-14T20:45:05.306Z,21.70
2018-07-14T20:47:34.326Z,21.70
2018-07-14T20:50:03.151Z,21.60
2018-07-14T20:52:32.118Z,21.60
2018-07-14T20:55:00.998Z,21.50
2018-07-14T20:57:30.334Z,21.40
2018-07-14T21:00:00.202Z,21.40
2018-07-14T21:02:29.036Z,21.30
2018-07-14T21:04:57.988Z,21.30
2018-07-14T21:07:26.768Z,21.10
2018-07-14T21:09:55.934Z,21.10
2018-07-14T21:12:24.914Z,21.10
2018-07-14T21:14:53.616Z,21.10
2018-07-14T21:17:22.550Z,21.00
2018-07-14T21:19:51.638Z,21.00
2018-07-14T21:22:20.562Z,21.00
2018-07-14T21:24:49.376Z,20.90
2018-07-14T21:27:18.150Z,20.90
2018-07-14T21:29:46.987Z,20.90
2018-07-14T21:34:44.284Z,20.80
2018-07-14T21:37:13.172Z,20.70
2018-07-14T21:39:42.034Z,20.70
2018-07-14T21:44:39.285Z,20.60
2018-07-14T21:47:08.104Z,20.60
2018-07-14T21:52:05.482Z,20.50
2018-07-14T21:54:34.292Z,20.50
2018-07-14T21:57:03.122Z,20.40
2018-07-14T21:59:32.060Z,20.40
2018-07-14T22:02:04.529Z,20.30
2018-07-14T22:04:34.551Z,20.30
2018-07-14T22:07:03.437Z,20.20
2018-07-14T22:09:32.407Z,20.20
2018-07-14T22:12:01.330Z,20.20
2018-07-14T22:14:30.243Z,20.10
2018-07-14T22:16:58.973Z,20.10
2018-07-14T22:19:27.837Z,20.00
2018-07-14T22:21:57.720Z,20.00
2018-07-14T22:24:26.527Z,19.90
2018-07-14T22:26:55.490Z,19.90
2018-07-14T22:29:24.330Z,19.80
2018-07-14T22:31:53.187Z,19.80
2018-07-14T22:34:22.178Z,19.80
2018-07-14T22:36:51.019Z,19.70
2018-07-14T22:39:19.951Z,19.70
2018-07-14T22:41:49.653Z,19.70
2018-07-14T22:44:19.695Z,19.60
2018-07-14T22:46:48.809Z,19.60
2018-07-14T22:49:18.484Z,19.60
2018-07-14T22:51:47.248Z,19.50
2018-07-14T22:54:16.133Z,19.50
2018-07-14T22:56:45.051Z,19.50
2018-07-14T22:59:13.929Z,19.40
2018-07-14T23:01:42.837Z,19.40
2018-07-14T23:04:11.663Z,19.30
2018-07-14T23:06:40.523Z,19.30
2018-07-14T23:09:09.493Z,19.20
2018-07-14T23:11:38.608Z,19.20
2018-07-14T23:14:07.602Z,19.10
2018-07-14T23:16:36.379Z,19.10
2018-07-14T23:19:05.386Z,19.10
2018-07-14T23:21:34.810Z,19.10
2018-07-14T23:24:03.871Z,19.00
2018-07-14T23:26:32.689Z,19.00
2018-07-14T23:29:01.499Z,19.00
2018-07-14T23:31:30.343Z,18.90
2018-07-14T23:33:59.247Z,18.90
2018-07-14T23:36:28.179Z,18.90
2018-07-14T23:38:57.070Z,18.80
2018-07-14T23:41:25.826Z,18.80
2018-07-14T23:43:54.746Z,18.70
2018-07-14T23:46:23.886Z,18.70
2018-07-14T23:48:53.029Z,18.60
2018-07-14T23:51:22.168Z,18.60
2018-07-14T23:53:51.064Z,18.60
2018-07-14T23:56:19.956Z,18.50
2018-07-14T23:58:48.877Z,18.50
